sensor_id;sensor_type;location;lat;lon;timestamp;pressure;altitude;pressure_sealevel;temperature;humidity
12963;BME280;6546;49.882;8.666;2022-10-31T00:01:20;100313.94;;;13.95;100.00
12963;BME280;6546;49.882;8.666;2022-10-31T00:03:48;100317.38;;;13.97;100.00
12963;BME280;6546;49.882;8.666;2022-10-31T00:06:16;100315.66;;;13.90;100.00
12963;BME280;6546;49.882;8.666;2022-10-31T00:08:44;100314.78;;;13.90;100.00
12963;BME280;6546;49.882;8.666;2022-10-31T00:11:13;100326.09;;;13.87;100.00
12963;BME280;6546;49.882;8.666;2022-10-31T00:13:40;100324.38;;;13.86;100.00
12963;BME280;6546;49.882;8.666;2022-10-31T00:16:13;100323.53;;;13.80;100.00
12963;BME280;6546;49.882;8.666;2022-10-31T00:18:44;100330.47;;;13.79;100.00
12963;BME280;6546;49.882;8.666;2022-10-31T00:21:16;100326.97;;;13.77;100.00
12963;BME280;6546;49.882;8.666;2022-10-31T00:23:43;100320.94;;;13.78;100.00
12963;BME280;6546;49.882;8.666;2022-10-31T00:26:10;100316.59;;;13.72;100.00
12963;BME280;6546;49.882;8.666;2022-10-31T00:28:37;100327.00;;;13.72;100.00
12963;BME280;6546;49.882;8.666;2022-10-31T00:31:06;100329.63;;;13.68;100.00
12963;BME280;6546;49.882;8.666;2022-10-31T00:33:35;100331.38;;;13.66;100.00
12963;BME280;6546;49.882;8.666;2022-10-31T00:36:04;100334.84;;;13.66;100.00
12963;BME280;6546;49.882;8.666;2022-10-31T00:38:32;100333.97;;;13.66;100.00
12963;BME280;6546;49.882;8.666;2022-10-31T00:40:59;100327.91;;;13.67;100.00
12963;BME280;6546;49.882;8.666;2022-10-31T00:43:26;100328.78;;;13.66;100.00
12963;BME280;6546;49.882;8.666;2022-10-31T00:45:52;100345.22;;;13.65;100.00
12963;BME280;6546;49.882;8.666;2022-10-31T00:48:19;100333.09;;;13.64;100.00
12963;BME280;6546;49.882;8.666;2022-10-31T00:50:46;100342.63;;;13.68;100.00
12963;BME280;6546;49.882;8.666;2022-10-31T00:53:13;100344.34;;;13.72;100.00
12963;BME280;6546;49.882;8.666;2022-10-31T00:55:42;100342.63;;;13.69;100.00
12963;BME280;6546;49.882;8.666;2022-10-31T00:58:10;100338.28;;;13.64;100.00
12963;BME280;6546;49.882;8.666;2022-10-31T01:00:37;100341.78;;;13.66;100.00
12963;BME280;6546;49.882;8.666;2022-10-31T01:03:04;100335.72;;;13.62;100.00
12963;BME280;6546;49.882;8.666;2022-10-31T01:05:31;100333.97;;;13.57;100.00
12963;BME280;6546;49.882;8.666;2022-10-31T01:07:58;100338.31;;;13.55;100.00
12963;BME280;6546;49.882;8.666;2022-10-31T01:10:29;100342.66;;;13.51;100.00
12963;BME280;6546;49.882;8.666;2022-10-31T01:13:02;100338.34;;;13.45;100.00
12963;BME280;6546;49.882;8.666;2022-10-31T01:15:29;100338.34;;;13.39;100.00
12963;BME280;6546;49.882;8.666;2022-10-31T01:18:00;100348.78;;;13.36;100.00
12963;BME280;6546;49.882;8.666;2022-10-31T01:20:29;100353.94;;;13.35;100.00
12963;BME280;6546;49.882;8.666;2022-10-31T01:22:57;100347.88;;;13.31;100.00
12963;BME280;6546;49.882;8.666;2022-10-31T01:25:24;100348.75;;;13.27;100.00
12963;BME280;6546;49.882;8.666;2022-10-31T01:27:54;100352.25;;;13.25;100.00
12963;BME280;6546;49.882;8.666;2022-10-31T01:30:22;100345.31;;;13.28;100.00
12963;BME280;6546;49.882;8.666;2022-10-31T01:32:51;100351.38;;;13.24;100.00
12963;BME280;6546;49.882;8.666;2022-10-31T01:35:20;100350.47;;;13.22;100.00
12963;BME280;6546;49.882;8.666;2022-10-31T01:37:48;100350.47;;;13.22;100.00
12963;BME280;6546;49.882;8.666;2022-10-31T01:40:15;100353.13;;;13.23;100.00
12963;BME280;6546;49.882;8.666;2022-10-31T01:42:42;100343.56;;;13.21;100.00
12963;BME280;6546;49.882;8.666;2022-10-31T01:45:10;100347.03;;;13.20;100.00
12963;BME280;6546;49.882;8.666;2022-10-31T01:47:45;100345.28;;;13.16;100.00
12963;BME280;6546;49.882;8.666;2022-10-31T01:50:23;100334.03;;;13.15;100.00
12963;BME280;6546;49.882;8.666;2022-10-31T01:52:55;100338.38;;;13.15;100.00
12963;BME280;6546;49.882;8.666;2022-10-31T01:55:25;100334.91;;;13.16;100.00
12963;BME280;6546;49.882;8.666;2022-10-31T01:57:54;100334.91;;;13.25;100.00
12963;BME280;6546;49.882;8.666;2022-10-31T02:00:21;100325.41;;;13.32;100.00
12963;BME280;6546;49.882;8.666;2022-10-31T02:02:50;100328.00;;;13.24;100.00
12963;BME280;6546;49.882;8.666;2022-10-31T02:05:24;100326.25;;;13.29;100.00
12963;BME280;6546;49.882;8.666;2022-10-31T02:07:55;100324.53;;;13.28;100.00
12963;BME280;6546;49.882;8.666;2022-10-31T02:10:24;100322.78;;;13.13;100.00
12963;BME280;6546;49.882;8.666;2022-10-31T02:12:52;100311.53;;;13.19;100.00
12963;BME280;6546;49.882;8.666;2022-10-31T02:15:20;100325.38;;;13.19;100.00
12963;BME280;6546;49.882;8.666;2022-10-31T02:17:46;100321.03;;;13.20;100.00
12963;BME280;6546;49.882;8.666;2022-10-31T02:20:17;100313.25;;;13.15;100.00
12963;BME280;6546;49.882;8.666;2022-10-31T02:23:10;100312.38;;;13.18;100.00
12963;BME280;6546;49.882;8.666;2022-10-31T02:29:02;100314.09;;;13.10;100.00
12963;BME280;6546;49.882;8.666;2022-10-31T02:31:38;100313.28;;;13.06;100.00
12963;BME280;6546;49.882;8.666;2022-10-31T02:34:12;100312.38;;;12.93;100.00
12963;BME280;6546;49.882;8.666;2022-10-31T02:36:45;100314.13;;;13.01;100.00
12963;BME280;6546;49.882;8.666;2022-10-31T02:39:18;100312.41;;;13.03;100.00
12963;BME280;6546;49.882;8.666;2022-10-31T02:41:54;100298.56;;;13.02;100.00
12963;BME280;6546;49.882;8.666;2022-10-31T02:44:30;100303.72;;;13.01;100.00
12963;BME280;6546;49.882;8.666;2022-10-31T02:47:05;100310.66;;;12.92;100.00
12963;BME280;6546;49.882;8.666;2022-10-31T02:49:38;100312.41;;;12.90;100.00
12963;BME280;6546;49.882;8.666;2022-10-31T02:52:14;100306.34;;;12.90;100.00
12963;BME280;6546;49.882;8.666;2022-10-31T02:54:41;100312.41;;;12.84;100.00
12963;BME280;6546;49.882;8.666;2022-10-31T02:57:08;100308.06;;;12.83;100.00
12963;BME280;6546;49.882;8.666;2022-10-31T02:59:44;100312.41;;;12.84;100.00
12963;BME280;6546;49.882;8.666;2022-10-31T03:02:25;100316.75;;;12.82;100.00
12963;BME280;6546;49.882;8.666;2022-10-31T03:05:11;100311.53;;;12.84;100.00
12963;BME280;6546;49.882;8.666;2022-10-31T03:07:46;100315.00;;;12.83;100.00
12963;BME280;6546;49.882;8.666;2022-10-31T03:10:25;100312.41;;;12.81;100.00
12963;BME280;6546;49.882;8.666;2022-10-31T03:13:01;100319.34;;;12.85;100.00
12963;BME280;6546;49.882;8.666;2022-10-31T03:15:33;100317.63;;;12.81;100.00
12963;BME280;6546;49.882;8.666;2022-10-31T03:18:04;100321.91;;;12.79;100.00
12963;BME280;6546;49.882;8.666;2022-10-31T03:20:37;100314.13;;;12.82;100.00
12963;BME280;6546;49.882;8.666;2022-10-31T03:23:06;100314.13;;;13.01;100.00
12963;BME280;6546;49.882;8.666;2022-10-31T03:25:36;100308.91;;;12.97;100.00
12963;BME280;6546;49.882;8.666;2022-10-31T03:28:05;100314.13;;;13.01;100.00
12963;BME280;6546;49.882;8.666;2022-10-31T03:30:33;100298.53;;;13.04;100.00
12963;BME280;6546;49.882;8.666;2022-10-31T03:33:07;100302.88;;;13.06;100.00
12963;BME280;6546;49.882;8.666;2022-10-31T03:35:36;100304.59;;;13.12;100.00
12963;BME280;6546;49.882;8.666;2022-10-31T03:38:05;100300.28;;;13.06;100.00
12963;BME280;6546;49.882;8.666;2022-10-31T03:40:34;100305.47;;;13.08;100.00
12963;BME280;6546;49.882;8.666;2022-10-31T03:43:05;100297.69;;;13.08;100.00
12963;BME280;6546;49.882;8.666;2022-10-31T03:45:37;100295.06;;;13.02;100.00
12963;BME280;6546;49.882;8.666;2022-10-31T03:48:07;100283.81;;;13.07;100.00
12963;BME280;6546;49.882;8.666;2022-10-31T03:50:38;100292.47;;;13.09;100.00
12963;BME280;6546;49.882;8.666;2022-10-31T03:53:11;100288.13;;;13.16;100.00
12963;BME280;6546;49.882;8.666;2022-10-31T03:55:45;100282.09;;;13.12;100.00
12963;BME280;6546;49.882;8.666;2022-10-31T03:58:19;100279.47;;;13.14;100.00
12963;BME280;6546;49.882;8.666;2022-10-31T04:00:48;100278.66;;;13.03;100.00
12963;BME280;6546;49.882;8.666;2022-10-31T04:03:22;100288.16;;;12.97;100.00
12963;BME280;6546;49.882;8.666;2022-10-31T04:05:52;100289.91;;;12.86;100.00
12963;BME280;6546;49.882;8.666;2022-10-31T04:08:23;100287.28;;;12.85;100.00
12963;BME280;6546;49.882;8.666;2022-10-31T04:10:51;100297.69;;;12.83;100.00
12963;BME280;6546;49.882;8.666;2022-10-31T04:13:22;100289.03;;;12.80;100.00
12963;BME280;6546;49.882;8.666;2022-10-31T04:15:52;100286.44;;;12.78;100.00
12963;BME280;6546;49.882;8.666;2022-10-31T04:18:22;100281.25;;;12.75;100.00
12963;BME280;6546;49.882;8.666;2022-10-31T04:20:49;100283.00;;;12.73;100.00
12963;BME280;6546;49.882;8.666;2022-10-31T04:23:26;100291.63;;;12.78;100.00
12963;BME280;6546;49.882;8.666;2022-10-31T04:25:53;100293.38;;;12.79;100.00
12963;BME280;6546;49.882;8.666;2022-10-31T04:28:19;100295.09;;;12.83;100.00
12963;BME280;6546;49.882;8.666;2022-10-31T04:30:46;100295.97;;;12.74;100.00
12963;BME280;6546;49.882;8.666;2022-10-31T04:33:12;100295.09;;;12.77;100.00
12963;BME280;6546;49.882;8.666;2022-10-31T04:35:41;100291.63;;;12.72;100.00
12963;BME280;6546;49.882;8.666;2022-10-31T04:38:07;100292.50;;;12.76;100.00
12963;BME280;6546;49.882;8.666;2022-10-31T04:40:34;100278.66;;;12.83;100.00
12963;BME280;6546;49.882;8.666;2022-10-31T04:43:00;100282.13;;;12.79;100.00
12963;BME280;6546;49.882;8.666;2022-10-31T04:45:27;100278.66;;;12.80;100.00
12963;BME280;6546;49.882;8.666;2022-10-31T04:47:53;100282.09;;;12.76;100.00
12963;BME280;6546;49.882;8.666;2022-10-31T04:50:20;100289.91;;;12.74;100.00
12963;BME280;6546;49.882;8.666;2022-10-31T04:52:48;100297.69;;;12.74;100.00
12963;BME280;6546;49.882;8.666;2022-10-31T04:55:15;100291.63;;;12.83;100.00
12963;BME280;6546;49.882;8.666;2022-10-31T04:57:42;100296.81;;;12.87;100.00
12963;BME280;6546;49.882;8.666;2022-10-31T05:00:10;100293.34;;;12.88;100.00
12963;BME280;6546;49.882;8.666;2022-10-31T05:02:42;100288.16;;;12.91;100.00
12963;BME280;6546;49.882;8.666;2022-10-31T05:05:09;100286.41;;;12.93;100.00
12963;BME280;6546;49.882;8.666;2022-10-31T05:07:38;100280.38;;;12.90;100.00
12963;BME280;6546;49.882;8.666;2022-10-31T05:10:06;100279.53;;;12.89;100.00
12963;BME280;6546;49.882;8.666;2022-10-31T05:12:35;100286.44;;;12.96;100.00
12963;BME280;6546;49.882;8.666;2022-10-31T05:15:01;100284.69;;;12.92;100.00
12963;BME280;6546;49.882;8.666;2022-10-31T05:17:28;100284.69;;;12.95;100.00
12963;BME280;6546;49.882;8.666;2022-10-31T05:19:54;100279.53;;;12.89;100.00
12963;BME280;6546;49.882;8.666;2022-10-31T05:22:21;100284.72;;;12.83;100.00
12963;BME280;6546;49.882;8.666;2022-10-31T05:24:47;100282.09;;;12.76;100.00
12963;BME280;6546;49.882;8.666;2022-10-31T05:27:15;100281.22;;;12.72;100.00
12963;BME280;6546;49.882;8.666;2022-10-31T05:29:41;100279.50;;;12.76;100.00
12963;BME280;6546;49.882;8.666;2022-10-31T05:32:08;100278.66;;;12.67;100.00
12963;BME280;6546;49.882;8.666;2022-10-31T05:34:34;100277.78;;;12.64;100.00
12963;BME280;6546;49.882;8.666;2022-10-31T05:37:01;100276.06;;;12.58;100.00
12963;BME280;6546;49.882;8.666;2022-10-31T05:39:27;100285.56;;;12.55;100.00
12963;BME280;6546;49.882;8.666;2022-10-31T05:41:54;100290.75;;;12.48;100.00
12963;BME280;6546;49.882;8.666;2022-10-31T05:44:22;100284.69;;;12.46;100.00
12963;BME280;6546;49.882;8.666;2022-10-31T05:46:48;100295.09;;;12.53;100.00
12963;BME280;6546;49.882;8.666;2022-10-31T05:49:15;100290.75;;;12.48;100.00
12963;BME280;6546;49.882;8.666;2022-10-31T05:51:42;100289.91;;;12.53;100.00
12963;BME280;6546;49.882;8.666;2022-10-31T05:54:09;100287.28;;;12.45;100.00
12963;BME280;6546;49.882;8.666;2022-10-31T05:56:35;100282.97;;;12.41;100.00
12963;BME280;6546;49.882;8.666;2022-10-31T05:59:02;100284.69;;;12.42;100.00
12963;BME280;6546;49.882;8.666;2022-10-31T06:01:30;100289.91;;;12.43;100.00
12963;BME280;6546;49.882;8.666;2022-10-31T06:03:56;100282.97;;;12.44;100.00
12963;BME280;6546;49.882;8.666;2022-10-31T06:06:23;100285.53;;;12.42;100.00
12963;BME280;6546;49.882;8.666;2022-10-31T06:08:49;100277.78;;;12.41;100.00
12963;BME280;6546;49.882;8.666;2022-10-31T06:11:16;100277.78;;;12.39;100.00
12963;BME280;6546;49.882;8.666;2022-10-31T06:13:42;100278.66;;;12.54;100.00
12963;BME280;6546;49.882;8.666;2022-10-31T06:16:10;100278.66;;;12.57;100.00
12963;BME280;6546;49.882;8.666;2022-10-31T06:18:38;100281.25;;;12.63;100.00
12963;BME280;6546;49.882;8.666;2022-10-31T06:21:04;100282.09;;;12.59;100.00
12963;BME280;6546;49.882;8.666;2022-10-31T06:23:31;100275.19;;;12.56;100.00
12963;BME280;6546;49.882;8.666;2022-10-31T06:25:57;100283.81;;;12.43;100.00
12963;BME280;6546;49.882;8.666;2022-10-31T06:28:24;100276.03;;;12.29;100.00
12963;BME280;6546;49.882;8.666;2022-10-31T06:30:50;100276.03;;;12.34;100.00
12963;BME280;6546;49.882;8.666;2022-10-31T06:33:17;100273.44;;;12.31;100.00
12963;BME280;6546;49.882;8.666;2022-10-31T06:35:46;100270.84;;;12.29;100.00
12963;BME280;6546;49.882;8.666;2022-10-31T06:38:13;100272.56;;;12.30;100.00
12963;BME280;6546;49.882;8.666;2022-10-31T06:40:39;100279.50;;;12.31;100.00
12963;BME280;6546;49.882;8.666;2022-10-31T06:43:06;100280.34;;;12.33;100.00
12963;BME280;6546;49.882;8.666;2022-10-31T06:45:32;100279.50;;;12.37;100.00
12963;BME280;6546;49.882;8.666;2022-10-31T06:48:00;100280.34;;;12.47;100.00
12963;BME280;6546;49.882;8.666;2022-10-31T06:50:26;100288.16;;;12.45;100.00
12963;BME280;6546;49.882;8.666;2022-10-31T06:52:56;100287.28;;;12.49;100.00
12963;BME280;6546;49.882;8.666;2022-10-31T06:55:24;100295.94;;;12.53;100.00
12963;BME280;6546;49.882;8.666;2022-10-31T06:57:51;100287.31;;;12.56;100.00
12963;BME280;6546;49.882;8.666;2022-10-31T07:00:18;100293.34;;;12.64;100.00
12963;BME280;6546;49.882;8.666;2022-10-31T07:02:52;100294.22;;;12.60;100.00
12963;BME280;6546;49.882;8.666;2022-10-31T07:05:19;100289.03;;;12.61;100.00
12963;BME280;6546;49.882;8.666;2022-10-31T07:07:46;100289.06;;;12.64;100.00
12963;BME280;6546;49.882;8.666;2022-10-31T07:10:15;100287.31;;;12.66;100.00
12963;BME280;6546;49.882;8.666;2022-10-31T07:12:41;100288.16;;;12.67;100.00
12963;BME280;6546;49.882;8.666;2022-10-31T07:15:08;100297.69;;;12.68;100.00
12963;BME280;6546;49.882;8.666;2022-10-31T07:17:35;100300.28;;;12.63;100.00
12963;BME280;6546;49.882;8.666;2022-10-31T07:20:02;100300.28;;;12.49;100.00
12963;BME280;6546;49.882;8.666;2022-10-31T07:22:32;100308.06;;;12.59;100.00
12963;BME280;6546;49.882;8.666;2022-10-31T07:24:59;100305.47;;;12.56;100.00
12963;BME280;6546;49.882;8.666;2022-10-31T07:27:27;100300.28;;;12.62;100.00
12963;BME280;6546;49.882;8.666;2022-10-31T07:29:53;100308.94;;;12.70;100.00
12963;BME280;6546;49.882;8.666;2022-10-31T07:32:20;100303.75;;;12.73;100.00
12963;BME280;6546;49.882;8.666;2022-10-31T07:34:46;100293.34;;;12.76;100.00
12963;BME280;6546;49.882;8.666;2022-10-31T07:37:13;100302.00;;;12.72;100.00
12963;BME280;6546;49.882;8.666;2022-10-31T07:39:39;100302.03;;;12.69;100.00
12963;BME280;6546;49.882;8.666;2022-10-31T07:42:06;100307.19;;;12.72;100.00
12963;BME280;6546;49.882;8.666;2022-10-31T07:44:33;100305.47;;;12.71;100.00
12963;BME280;6546;49.882;8.666;2022-10-31T07:47:00;100302.88;;;12.66;100.00
12963;BME280;6546;49.882;8.666;2022-10-31T07:49:26;100304.59;;;12.57;100.00
12963;BME280;6546;49.882;8.666;2022-10-31T07:51:53;100298.53;;;12.58;100.00
12963;BME280;6546;49.882;8.666;2022-10-31T07:54:21;100299.41;;;12.57;100.00
12963;BME280;6546;49.882;8.666;2022-10-31T07:56:47;100301.13;;;12.59;100.00
12963;BME280;6546;49.882;8.666;2022-10-31T07:59:14;100294.22;;;12.57;100.00
12963;BME280;6546;49.882;8.666;2022-10-31T08:01:42;100294.22;;;12.55;100.00
12963;BME280;6546;49.882;8.666;2022-10-31T08:04:08;100301.16;;;12.58;100.00
12963;BME280;6546;49.882;8.666;2022-10-31T08:06:35;100301.13;;;12.50;100.00
12963;BME280;6546;49.882;8.666;2022-10-31T08:09:01;100302.00;;;12.51;100.00
12963;BME280;6546;49.882;8.666;2022-10-31T08:11:28;100303.72;;;12.48;100.00
12963;BME280;6546;49.882;8.666;2022-10-31T08:13:54;100300.25;;;12.46;100.00
12963;BME280;6546;49.882;8.666;2022-10-31T08:16:21;100295.94;;;12.44;100.00
12963;BME280;6546;49.882;8.666;2022-10-31T08:18:49;100295.09;;;12.43;100.00
12963;BME280;6546;49.882;8.666;2022-10-31T08:21:15;100298.53;;;12.64;100.00
12963;BME280;6546;49.882;8.666;2022-10-31T08:23:42;100290.75;;;12.81;100.00
12963;BME280;6546;49.882;8.666;2022-10-31T08:26:08;100288.19;;;12.94;100.00
12963;BME280;6546;49.882;8.666;2022-10-31T08:28:35;100287.28;;;13.00;100.00
12963;BME280;6546;49.882;8.666;2022-10-31T08:31:02;100288.16;;;13.07;100.00
12963;BME280;6546;49.882;8.666;2022-10-31T08:33:28;100288.13;;;13.10;100.00
12963;BME280;6546;49.882;8.666;2022-10-31T08:35:57;100284.66;;;13.14;100.00
12963;BME280;6546;49.882;8.666;2022-10-31T08:38:24;100276.03;;;13.12;100.00
12963;BME280;6546;49.882;8.666;2022-10-31T08:40:51;100273.44;;;13.15;100.00
12963;BME280;6546;49.882;8.666;2022-10-31T08:43:18;100272.56;;;13.19;100.00
12963;BME280;6546;49.882;8.666;2022-10-31T08:45:47;100276.00;;;13.27;100.00
12963;BME280;6546;49.882;8.666;2022-10-31T08:48:15;100277.75;;;13.30;100.00
12963;BME280;6546;49.882;8.666;2022-10-31T08:50:44;100275.97;;;13.42;100.00
12963;BME280;6546;49.882;8.666;2022-10-31T08:53:13;100266.44;;;13.49;100.00
12963;BME280;6546;49.882;8.666;2022-10-31T08:55:41;100268.16;;;13.50;100.00
12963;BME280;6546;49.882;8.666;2022-10-31T08:58:10;100260.38;;;13.45;100.00
12963;BME280;6546;49.882;8.666;2022-10-31T09:00:37;100260.38;;;13.44;100.00
12963;BME280;6546;49.882;8.666;2022-10-31T09:03:08;100259.47;;;13.51;100.00
12963;BME280;6546;49.882;8.666;2022-10-31T09:05:35;100263.78;;;13.66;100.00
12963;BME280;6546;49.882;8.666;2022-10-31T09:08:03;100256.81;;;13.74;100.00
12963;BME280;6546;49.882;8.666;2022-10-31T09:10:33;100258.50;;;13.73;100.00
12963;BME280;6546;49.882;8.666;2022-10-31T09:13:01;100261.06;;;13.89;100.00
12963;BME280;6546;49.882;8.666;2022-10-31T09:15:32;100264.50;;;13.94;100.00
12963;BME280;6546;49.882;8.666;2022-10-31T09:17:58;100256.72;;;13.89;100.00
12963;BME280;6546;49.882;8.666;2022-10-31T09:20:26;100252.31;;;14.02;100.00
12963;BME280;6546;49.882;8.666;2022-10-31T09:22:56;100258.31;;;14.15;100.00
12963;BME280;6546;49.882;8.666;2022-10-31T09:25:23;100257.44;;;14.14;100.00
12963;BME280;6546;49.882;8.666;2022-10-31T09:27:55;100259.13;;;14.21;100.00
12963;BME280;6546;49.882;8.666;2022-10-31T09:30:21;100254.75;;;14.28;100.00
12963;BME280;6546;49.882;8.666;2022-10-31T09:32:48;100253.88;;;14.28;100.00
12963;BME280;6546;49.882;8.666;2022-10-31T09:35:20;100254.81;;;14.17;100.00
12963;BME280;6546;49.882;8.666;2022-10-31T09:37:47;100245.25;;;14.22;100.00
12963;BME280;6546;49.882;8.666;2022-10-31T09:40:13;100247.03;;;14.16;100.00
12963;BME280;6546;49.882;8.666;2022-10-31T09:42:54;100232.22;;;14.24;100.00
12963;BME280;6546;49.882;8.666;2022-10-31T09:45:26;100246.09;;;14.29;100.00
12963;BME280;6546;49.882;8.666;2022-10-31T09:48:08;100236.47;;;14.37;100.00
12963;BME280;6546;49.882;8.666;2022-10-31T09:50:41;100241.59;;;14.51;100.00
12963;BME280;6546;49.882;8.666;2022-10-31T09:53:22;100241.53;;;14.59;100.00
12963;BME280;6546;49.882;8.666;2022-10-31T09:55:50;100243.16;;;14.72;100.00
12963;BME280;6546;49.882;8.666;2022-10-31T09:58:20;100235.25;;;14.84;100.00
12963;BME280;6546;49.882;8.666;2022-10-31T10:00:49;100229.97;;;14.90;100.00
12963;BME280;6546;49.882;8.666;2022-10-31T10:03:26;100232.53;;;14.96;100.00
12963;BME280;6546;49.882;8.666;2022-10-31T10:05:59;100224.59;;;15.09;100.00
12963;BME280;6546;49.882;8.666;2022-10-31T10:08:30;100228.00;;;15.14;100.00
12963;BME280;6546;49.882;8.666;2022-10-31T10:11:04;100233.19;;;15.12;100.00
12963;BME280;6546;49.882;8.666;2022-10-31T10:13:45;100225.25;;;15.25;100.00
12963;BME280;6546;49.882;8.666;2022-10-31T10:16:27;100222.56;;;15.32;100.00
12963;BME280;6546;49.882;8.666;2022-10-31T10:19:10;100218.03;;;15.48;100.00
12963;BME280;6546;49.882;8.666;2022-10-31T10:21:46;100224.97;;;15.49;100.00
12963;BME280;6546;49.882;8.666;2022-10-31T10:24:22;100221.44;;;15.53;100.00
12963;BME280;6546;49.882;8.666;2022-10-31T10:26:54;100217.91;;;15.57;100.00
12963;BME280;6546;49.882;8.666;2022-10-31T10:29:32;100225.69;;;15.62;100.00
12963;BME280;6546;49.882;8.666;2022-10-31T10:32:04;100214.34;;;15.66;100.00
12963;BME280;6546;49.882;8.666;2022-10-31T10:34:35;100218.59;;;15.76;100.00
12963;BME280;6546;49.882;8.666;2022-10-31T10:37:08;100212.44;;;15.80;100.00
12963;BME280;6546;49.882;8.666;2022-10-31T10:39:42;100210.69;;;15.81;100.00
12963;BME280;6546;49.882;8.666;2022-10-31T10:42:12;100205.31;;;15.91;100.00
12963;BME280;6546;49.882;8.666;2022-10-31T10:44:58;100206.06;;;16.00;100.00
12963;BME280;6546;49.882;8.666;2022-10-31T10:47:44;100198.84;;;16.17;100.00
12963;BME280;6546;49.882;8.666;2022-10-31T10:50:15;100193.53;;;16.23;100.00
12963;BME280;6546;49.882;8.666;2022-10-31T10:52:49;100189.78;;;16.39;100.00
12963;BME280;6546;49.882;8.666;2022-10-31T10:55:26;100179.28;;;16.42;100.00
12963;BME280;6546;49.882;8.666;2022-10-31T10:57:57;100189.50;;;16.55;100.00
12963;BME280;6546;49.882;8.666;2022-10-31T11:00:29;100187.81;;;16.54;100.00
12963;BME280;6546;49.882;8.666;2022-10-31T11:02:56;100186.91;;;16.56;100.00
12963;BME280;6546;49.882;8.666;2022-10-31T11:05:30;100173.81;;;16.58;100.00
12963;BME280;6546;49.882;8.666;2022-10-31T11:07:59;100167.63;;;16.62;100.00
12963;BME280;6546;49.882;8.666;2022-10-31T11:10:26;100165.75;;;16.68;100.00
12963;BME280;6546;49.882;8.666;2022-10-31T11:13:20;100154.38;;;16.74;100.00
12963;BME280;6546;49.882;8.666;2022-10-31T11:15:57;100164.53;;;16.91;100.00
12963;BME280;6546;49.882;8.666;2022-10-31T11:18:26;100156.78;;;16.85;100.00
12963;BME280;6546;49.882;8.666;2022-10-31T11:20:55;100156.81;;;16.83;100.00
12963;BME280;6546;49.882;8.666;2022-10-31T11:23:23;100150.50;;;16.93;100.00
12963;BME280;6546;49.882;8.666;2022-10-31T11:25:55;100152.19;;;16.98;100.00
12963;BME280;6546;49.882;8.666;2022-10-31T11:28:23;100152.19;;;16.98;100.00
12963;BME280;6546;49.882;8.666;2022-10-31T11:30:52;100138.19;;;17.00;100.00
12963;BME280;6546;49.882;8.666;2022-10-31T11:33:24;100132.00;;;17.04;100.00
12963;BME280;6546;49.882;8.666;2022-10-31T11:35:53;100122.22;;;17.14;100.00
12963;BME280;6546;49.882;8.666;2022-10-31T11:38:21;100116.03;;;17.19;100.00
12963;BME280;6546;49.882;8.666;2022-10-31T11:40:53;100111.75;;;17.14;100.00
12963;BME280;6546;49.882;8.666;2022-10-31T11:43:21;100111.56;;;17.23;100.00
12963;BME280;6546;49.882;8.666;2022-10-31T11:45:48;100110.75;;;17.21;100.00
12963;BME280;6546;49.882;8.666;2022-10-31T11:48:17;100109.66;;;17.31;100.00
12963;BME280;6546;49.882;8.666;2022-10-31T11:50:49;100103.34;;;17.41;100.00
12963;BME280;6546;49.882;8.666;2022-10-31T11:53:18;100100.56;;;17.48;100.00
12963;BME280;6546;49.882;8.666;2022-10-31T11:55:46;100093.56;;;17.50;100.00
12963;BME280;6546;49.882;8.666;2022-10-31T11:58:20;100096.06;;;17.54;100.00
12963;BME280;6546;49.882;8.666;2022-10-31T12:00:49;100095.28;;;17.51;100.00
12963;BME280;6546;49.882;8.666;2022-10-31T12:03:40;100090.97;;;17.48;100.00
12963;BME280;6546;49.882;8.666;2022-10-31T12:06:15;100086.47;;;17.55;100.00
12963;BME280;6546;49.882;8.666;2022-10-31T12:08:44;100091.47;;;17.64;100.00
12963;BME280;6546;49.882;8.666;2022-10-31T12:11:30;100087.84;;;17.71;100.00
12963;BME280;6546;49.882;8.666;2022-10-31T12:14:11;100086.78;;;17.80;100.00
12963;BME280;6546;49.882;8.666;2022-10-31T12:16:47;100078.78;;;17.86;100.00
12963;BME280;6546;49.882;8.666;2022-10-31T12:19:24;100080.34;;;17.93;100.00
12963;BME280;6546;49.882;8.666;2022-10-31T12:22:02;100078.59;;;17.93;100.00
12963;BME280;6546;49.882;8.666;2022-10-31T12:24:45;100076.88;;;17.92;100.00
12963;BME280;6546;49.882;8.666;2022-10-31T12:27:25;100078.66;;;17.92;100.00
12963;BME280;6546;49.882;8.666;2022-10-31T12:30:15;100070.78;;;17.92;100.00
12963;BME280;6546;49.882;8.666;2022-10-31T12:32:57;100080.53;;;17.87;100.00
12963;BME280;6546;49.882;8.666;2022-10-31T12:35:48;100069.09;;;17.89;100.00
12963;BME280;6546;49.882;8.666;2022-10-31T12:38:34;100075.97;;;17.95;100.00
12963;BME280;6546;49.882;8.666;2022-10-31T12:41:36;100069.81;;;17.96;100.00
12963;BME280;6546;49.882;8.666;2022-10-31T12:44:08;100060.09;;;18.01;100.00
12963;BME280;6546;49.882;8.666;2022-10-31T12:46:55;100052.41;;;17.93;100.00
12963;BME280;6546;49.882;8.666;2022-10-31T12:49:35;100043.63;;;17.96;100.00
12963;BME280;6546;49.882;8.666;2022-10-31T12:52:17;100032.31;;;17.94;100.00
12963;BME280;6546;49.882;8.666;2022-10-31T12:55:08;100027.09;;;17.94;100.00
12963;BME280;6546;49.882;8.666;2022-10-31T12:57:38;100021.75;;;17.99;100.00
12963;BME280;6546;49.882;8.666;2022-10-31T13:00:11;100014.91;;;17.93;100.00
12963;BME280;6546;49.882;8.666;2022-10-31T13:02:44;100007.00;;;17.94;100.00
12963;BME280;6546;49.882;8.666;2022-10-31T13:05:18;100000.06;;;17.93;100.00
12963;BME280;6546;49.882;8.666;2022-10-31T13:07:49;99989.59;;;17.93;100.00
12963;BME280;6546;49.882;8.666;2022-10-31T13:10:23;99992.25;;;17.92;100.00